sensor_id;sensor_type;location;lat;lon;timestamp;pressure;altitude;pressure_sealevel;temperature;humidity
32747;BME280;19118;50.860;13.662;2023-02-04T00:01:00;97144.38;;;1.65;100.00
32747;BME280;19118;50.860;13.662;2023-02-04T00:06:00;97164.69;;;1.71;100.00
32747;BME280;19118;50.860;13.662;2023-02-04T00:11:00;97170.97;;;1.69;100.00
32747;BME280;19118;50.860;13.662;2023-02-04T00:16:01;97199.94;;;1.66;100.00
32747;BME280;19118;50.860;13.662;2023-02-04T00:21:01;97231.06;;;0.58;100.00
32747;BME280;19118;50.860;13.662;2023-02-04T00:26:01;97267.50;;;0.58;100.00
32747;BME280;19118;50.860;13.662;2023-02-04T00:31:02;97309.13;;;0.37;100.00
32747;BME280;19118;50.860;13.662;2023-02-04T00:36:03;97301.03;;;0.40;100.00
32747;BME280;19118;50.860;13.662;2023-02-04T00:41:03;97322.31;;;0.24;100.00
32747;BME280;19118;50.860;13.662;2023-02-04T00:46:04;97355.91;;;0.16;100.00
32747;BME280;19118;50.860;13.662;2023-02-04T00:51:04;97382.94;;;-0.18;100.00
32747;BME280;19118;50.860;13.662;2023-02-04T00:56:06;97380.59;;;-0.21;100.00
32747;BME280;19118;50.860;13.662;2023-02-04T01:01:06;97385.06;;;-0.23;100.00
32747;BME280;19118;50.860;13.662;2023-02-04T01:06:07;97413.63;;;-0.23;100.00
32747;BME280;19118;50.860;13.662;2023-02-04T01:11:08;97431.50;;;-0.30;100.00
32747;BME280;19118;50.860;13.662;2023-02-04T01:16:08;97454.19;;;-0.32;100.00
32747;BME280;19118;50.860;13.662;2023-02-04T01:21:09;97457.47;;;-0.30;100.00
32747;BME280;19118;50.860;13.662;2023-02-04T01:26:09;97469.41;;;-0.27;100.00
32747;BME280;19118;50.860;13.662;2023-02-04T01:31:09;97482.63;;;-0.31;100.00
32747;BME280;19118;50.860;13.662;2023-02-04T01:36:10;97482.88;;;-0.34;100.00
32747;BME280;19118;50.860;13.662;2023-02-04T01:41:11;97490.19;;;-0.39;100.00
32747;BME280;19118;50.860;13.662;2023-02-04T01:46:11;97497.28;;;-0.41;100.00
32747;BME280;19118;50.860;13.662;2023-02-04T01:51:14;97512.63;;;-0.38;100.00
32747;BME280;19118;50.860;13.662;2023-02-04T01:56:18;97520.16;;;-0.46;100.00
32747;BME280;19118;50.860;13.662;2023-02-04T02:01:40;97523.47;;;-0.55;100.00
32747;BME280;19118;50.860;13.662;2023-02-04T02:06:45;97555.59;;;-0.56;100.00
32747;BME280;19118;50.860;13.662;2023-02-04T02:11:46;97563.13;;;-0.64;100.00
32747;BME280;19118;50.860;13.662;2023-02-04T02:16:47;97577.25;;;-0.68;100.00
32747;BME280;19118;50.860;13.662;2023-02-04T02:21:54;97615.38;;;-0.69;100.00
32747;BME280;19118;50.860;13.662;2023-02-04T02:26:59;97616.94;;;-0.66;100.00
32747;BME280;19118;50.860;13.662;2023-02-04T02:32:01;97633.94;;;-0.62;100.00
32747;BME280;19118;50.860;13.662;2023-02-04T02:37:02;97628.06;;;-0.53;100.00
32747;BME280;19118;50.860;13.662;2023-02-04T02:42:03;97640.25;;;-0.53;100.00
32747;BME280;19118;50.860;13.662;2023-02-04T02:47:03;97649.81;;;-0.54;100.00
32747;BME280;19118;50.860;13.662;2023-02-04T02:52:04;97659.47;;;-0.56;100.00
32747;BME280;19118;50.860;13.662;2023-02-04T02:57:18;97662.47;;;-0.73;100.00
32747;BME280;19118;50.860;13.662;2023-02-04T03:02:21;97677.03;;;-0.83;100.00
32747;BME280;19118;50.860;13.662;2023-02-04T03:07:22;97690.06;;;-0.96;100.00
32747;BME280;19118;50.860;13.662;2023-02-04T03:12:23;97705.56;;;-1.07;100.00
32747;BME280;19118;50.860;13.662;2023-02-04T03:17:24;97722.50;;;-1.14;100.00
32747;BME280;19118;50.860;13.662;2023-02-04T03:22:24;97744.00;;;-1.12;100.00
32747;BME280;19118;50.860;13.662;2023-02-04T03:27:25;97760.28;;;-1.10;100.00
32747;BME280;19118;50.860;13.662;2023-02-04T03:32:25;97779.06;;;-1.07;100.00
32747;BME280;19118;50.860;13.662;2023-02-04T03:37:25;97785.91;;;-1.06;100.00
32747;BME280;19118;50.860;13.662;2023-02-04T03:42:26;97795.16;;;-1.02;100.00
32747;BME280;19118;50.860;13.662;2023-02-04T03:47:26;97796.59;;;-0.98;100.00
32747;BME280;19118;50.860;13.662;2023-02-04T03:52:27;97815.78;;;-0.88;100.00
32747;BME280;19118;50.860;13.662;2023-02-04T03:57:27;97830.44;;;-0.86;100.00
32747;BME280;19118;50.860;13.662;2023-02-04T04:02:27;97842.38;;;-0.97;100.00
32747;BME280;19118;50.860;13.662;2023-02-04T04:07:28;97860.22;;;-1.05;100.00
32747;BME280;19118;50.860;13.662;2023-02-04T04:12:28;97874.38;;;-1.09;100.00
32747;BME280;19118;50.860;13.662;2023-02-04T04:17:29;97897.81;;;-1.23;100.00
32747;BME280;19118;50.860;13.662;2023-02-04T04:22:29;97915.66;;;-1.19;100.00
32747;BME280;19118;50.860;13.662;2023-02-04T04:27:30;97926.53;;;-1.26;100.00
32747;BME280;19118;50.860;13.662;2023-02-04T04:32:30;97950.94;;;-1.29;100.00
32747;BME280;19118;50.860;13.662;2023-02-04T04:37:30;97968.59;;;-1.48;100.00
32747;BME280;19118;50.860;13.662;2023-02-04T04:42:31;97979.81;;;-1.48;100.00
32747;BME280;19118;50.860;13.662;2023-02-04T04:47:31;97987.91;;;-1.52;100.00
32747;BME280;19118;50.860;13.662;2023-02-04T04:52:31;97992.06;;;-1.50;100.00
32747;BME280;19118;50.860;13.662;2023-02-04T04:57:32;97995.69;;;-1.52;100.00
32747;BME280;19118;50.860;13.662;2023-02-04T05:02:32;98018.66;;;-1.46;100.00
32747;BME280;19118;50.860;13.662;2023-02-04T05:07:32;98028.56;;;-1.53;100.00
32747;BME280;19118;50.860;13.662;2023-02-04T05:12:33;98032.56;;;-1.47;100.00
32747;BME280;19118;50.860;13.662;2023-02-04T05:17:33;98027.63;;;-1.52;100.00
32747;BME280;19118;50.860;13.662;2023-02-04T05:22:33;98030.69;;;-1.59;100.00
32747;BME280;19118;50.860;13.662;2023-02-04T05:27:34;98040.25;;;-1.60;100.00
32747;BME280;19118;50.860;13.662;2023-02-04T05:32:34;98056.16;;;-1.52;100.00
32747;BME280;19118;50.860;13.662;2023-02-04T05:37:34;98059.16;;;-1.58;100.00
32747;BME280;19118;50.860;13.662;2023-02-04T05:42:35;98088.34;;;-1.68;100.00
32747;BME280;19118;50.860;13.662;2023-02-04T05:47:35;98091.19;;;-1.73;100.00
32747;BME280;19118;50.860;13.662;2023-02-04T05:52:35;98104.72;;;-1.68;100.00
32747;BME280;19118;50.860;13.662;2023-02-04T05:57:36;98111.94;;;-1.73;100.00
32747;BME280;19118;50.860;13.662;2023-02-04T06:02:36;98125.00;;;-1.74;100.00
32747;BME280;19118;50.860;13.662;2023-02-04T06:07:37;98141.19;;;-1.85;100.00
32747;BME280;19118;50.860;13.662;2023-02-04T06:12:37;98151.13;;;-1.92;100.00
32747;BME280;19118;50.860;13.662;2023-02-04T06:17:38;98167.84;;;-1.97;100.00
32747;BME280;19118;50.860;13.662;2023-02-04T06:22:38;98188.03;;;-2.02;100.00
32747;BME280;19118;50.860;13.662;2023-02-04T06:27:38;98201.91;;;-2.03;100.00
32747;BME280;19118;50.860;13.662;2023-02-04T06:32:39;98217.53;;;-2.05;100.00
32747;BME280;19118;50.860;13.662;2023-02-04T06:37:39;98226.13;;;-2.05;100.00
32747;BME280;19118;50.860;13.662;2023-02-04T06:42:40;98230.78;;;-1.95;100.00
32747;BME280;19118;50.860;13.662;2023-02-04T06:47:40;98253.56;;;-2.00;100.00
32747;BME280;19118;50.860;13.662;2023-02-04T06:52:41;98273.94;;;-1.94;100.00
32747;BME280;19118;50.860;13.662;2023-02-04T06:57:41;98277.72;;;-2.00;100.00
32747;BME280;19118;50.860;13.662;2023-02-04T07:02:42;98286.16;;;-1.96;100.00
32747;BME280;19118;50.860;13.662;2023-02-04T07:07:43;98291.84;;;-2.06;100.00
32747;BME280;19118;50.860;13.662;2023-02-04T07:12:43;98309.28;;;-1.93;100.00
32747;BME280;19118;50.860;13.662;2023-02-04T07:17:43;98315.34;;;-2.09;100.00
32747;BME280;19118;50.860;13.662;2023-02-04T07:22:44;98306.66;;;-2.08;100.00
32747;BME280;19118;50.860;13.662;2023-02-04T07:27:44;98314.66;;;-2.26;100.00
32747;BME280;19118;50.860;13.662;2023-02-04T07:32:44;98316.38;;;-2.27;100.00
32747;BME280;19118;50.860;13.662;2023-02-04T07:37:45;98324.81;;;-2.39;100.00
32747;BME280;19118;50.860;13.662;2023-02-04T07:42:45;98331.63;;;-2.37;100.00
32747;BME280;19118;50.860;13.662;2023-02-04T07:47:50;98341.28;;;-2.24;100.00
32747;BME280;19118;50.860;13.662;2023-02-04T07:52:51;98353.13;;;-2.05;100.00
32747;BME280;19118;50.860;13.662;2023-02-04T07:57:51;98363.38;;;-1.87;100.00
32747;BME280;19118;50.860;13.662;2023-02-04T08:02:51;98375.56;;;-1.73;100.00
32747;BME280;19118;50.860;13.662;2023-02-04T08:07:52;98380.31;;;-1.66;100.00
32747;BME280;19118;50.860;13.662;2023-02-04T08:12:52;98383.84;;;-1.67;100.00
32747;BME280;19118;50.860;13.662;2023-02-04T08:17:52;98394.75;;;-1.46;100.00
32747;BME280;19118;50.860;13.662;2023-02-04T08:22:53;98395.53;;;-1.30;100.00
32747;BME280;19118;50.860;13.662;2023-02-04T08:27:53;98405.25;;;-1.33;100.00
32747;BME280;19118;50.860;13.662;2023-02-04T08:32:53;98422.91;;;-1.24;100.00
32747;BME280;19118;50.860;13.662;2023-02-04T08:37:54;98425.00;;;-1.31;100.00
32747;BME280;19118;50.860;13.662;2023-02-04T08:42:54;98425.13;;;-1.18;100.00
32747;BME280;19118;50.860;13.662;2023-02-04T08:47:55;98437.81;;;-1.13;100.00
32747;BME280;19118;50.860;13.662;2023-02-04T08:52:55;98460.22;;;-0.97;100.00
32747;BME280;19118;50.860;13.662;2023-02-04T08:57:56;98463.72;;;-0.98;100.00
32747;BME280;19118;50.860;13.662;2023-02-04T09:02:58;98473.59;;;-0.89;100.00
32747;BME280;19118;50.860;13.662;2023-02-04T09:07:58;98469.78;;;-0.83;100.00
32747;BME280;19118;50.860;13.662;2023-02-04T09:12:58;98484.63;;;-1.15;100.00
32747;BME280;19118;50.860;13.662;2023-02-04T09:17:59;98473.28;;;-0.98;100.00
32747;BME280;19118;50.860;13.662;2023-02-04T09:23:11;98486.81;;;-0.93;100.00
32747;BME280;19118;50.860;13.662;2023-02-04T09:28:12;98483.59;;;-0.82;100.00
32747;BME280;19118;50.860;13.662;2023-02-04T09:33:14;98491.91;;;-0.62;100.00
32747;BME280;19118;50.860;13.662;2023-02-04T09:38:15;98493.50;;;-0.45;100.00
32747;BME280;19118;50.860;13.662;2023-02-04T09:43:21;98497.19;;;-0.35;100.00
32747;BME280;19118;50.860;13.662;2023-02-04T09:48:25;98512.03;;;-0.37;100.00
32747;BME280;19118;50.860;13.662;2023-02-04T09:53:25;98518.16;;;-0.52;100.00
32747;BME280;19118;50.860;13.662;2023-02-04T09:58:28;98535.81;;;-0.43;100.00
32747;BME280;19118;50.860;13.662;2023-02-04T10:03:30;98543.31;;;-0.38;100.00
32747;BME280;19118;50.860;13.662;2023-02-04T10:08:31;98545.38;;;-0.29;100.00
32747;BME280;19118;50.860;13.662;2023-02-04T10:13:35;98541.84;;;-0.14;100.00
32747;BME280;19118;50.860;13.662;2023-02-04T10:18:36;98547.53;;;0.07;100.00
32747;BME280;19118;50.860;13.662;2023-02-04T10:23:37;98551.78;;;0.08;100.00
32747;BME280;19118;50.860;13.662;2023-02-04T10:28:38;98558.28;;;0.29;100.00
32747;BME280;19118;50.860;13.662;2023-02-04T10:33:41;98559.66;;;0.21;100.00
32747;BME280;19118;50.860;13.662;2023-02-04T10:38:42;98569.06;;;0.23;100.00
32747;BME280;19118;50.860;13.662;2023-02-04T10:43:42;98571.66;;;0.38;100.00
32747;BME280;19118;50.860;13.662;2023-02-04T10:48:42;98560.94;;;1.10;100.00
32747;BME280;19118;50.860;13.662;2023-02-04T10:53:42;98578.53;;;0.39;100.00
32747;BME280;19118;50.860;13.662;2023-02-04T10:59:01;98578.53;;;0.39;100.00
32747;BME280;19118;50.860;13.662;2023-02-04T11:04:02;98584.56;;;0.39;100.00
32747;BME280;19118;50.860;13.662;2023-02-04T11:09:02;98589.13;;;0.36;100.00
32747;BME280;19118;50.860;13.662;2023-02-04T11:14:03;98583.03;;;0.64;100.00
32747;BME280;19118;50.860;13.662;2023-02-04T11:19:08;98593.84;;;0.43;100.00
32747;BME280;19118;50.860;13.662;2023-02-04T11:29:32;98597.00;;;0.90;100.00
32747;BME280;19118;50.860;13.662;2023-02-04T11:34:46;98594.44;;;0.75;100.00
32747;BME280;19118;50.860;13.662;2023-02-04T11:39:47;98599.78;;;1.40;100.00
32747;BME280;19118;50.860;13.662;2023-02-04T11:44:53;98605.31;;;1.09;100.00
32747;BME280;19118;50.860;13.662;2023-02-04T11:49:58;98601.88;;;0.81;100.00
32747;BME280;19118;50.860;13.662;2023-02-04T11:55:00;98610.84;;;0.63;100.00
32747;BME280;19118;50.860;13.662;2023-02-04T12:00:01;98622.09;;;0.49;100.00
32747;BME280;19118;50.860;13.662;2023-02-04T12:05:10;98624.78;;;0.34;100.00
32747;BME280;19118;50.860;13.662;2023-02-04T12:15:31;98633.16;;;0.39;100.00
32747;BME280;19118;50.860;13.662;2023-02-04T12:20:35;98637.81;;;0.34;100.00
32747;BME280;19118;50.860;13.662;2023-02-04T12:25:36;98636.81;;;0.92;100.00
32747;BME280;19118;50.860;13.662;2023-02-04T12:30:36;98643.97;;;0.88;100.00
32747;BME280;19118;50.860;13.662;2023-02-04T12:35:36;98648.47;;;0.72;100.00
32747;BME280;19118;50.860;13.662;2023-02-04T12:40:37;98650.88;;;0.75;100.00
32747;BME280;19118;50.860;13.662;2023-02-04T12:45:38;98640.59;;;0.59;100.00
32747;BME280;19118;50.860;13.662;2023-02-04T12:50:40;98638.47;;;0.51;100.00
32747;BME280;19118;50.860;13.662;2023-02-04T12:55:41;98653.69;;;0.43;100.00
32747;BME280;19118;50.860;13.662;2023-02-04T13:00:41;98646.44;;;0.20;100.00
32747;BME280;19118;50.860;13.662;2023-02-04T13:05:41;98660.06;;;-0.19;100.00
32747;BME280;19118;50.860;13.662;2023-02-04T13:10:42;98666.19;;;-0.20;100.00
32747;BME280;19118;50.860;13.662;2023-02-04T13:15:42;98660.25;;;-0.22;100.00
32747;BME280;19118;50.860;13.662;2023-02-04T13:20:43;98657.34;;;-0.32;100.00
32747;BME280;19118;50.860;13.662;2023-02-04T13:25:45;98662.78;;;-0.37;100.00
32747;BME280;19118;50.860;13.662;2023-02-04T13:30:45;98669.38;;;-0.61;100.00
32747;BME280;19118;50.860;13.662;2023-02-04T13:35:45;98670.31;;;-0.94;100.00
32747;BME280;19118;50.860;13.662;2023-02-04T13:40:46;98677.56;;;-0.53;100.00
32747;BME280;19118;50.860;13.662;2023-02-04T13:45:46;98687.41;;;-0.28;100.00
32747;BME280;19118;50.860;13.662;2023-02-04T13:50:48;98687.50;;;-0.30;100.00
32747;BME280;19118;50.860;13.662;2023-02-04T13:55:49;98679.38;;;-0.39;100.00
32747;BME280;19118;50.860;13.662;2023-02-04T14:00:50;98684.47;;;-0.68;100.00
32747;BME280;19118;50.860;13.662;2023-02-04T14:05:51;98684.31;;;-0.80;100.00
32747;BME280;19118;50.860;13.662;2023-02-04T14:10:51;98667.41;;;-0.88;100.00
32747;BME280;19118;50.860;13.662;2023-02-04T14:15:52;98664.09;;;-0.60;100.00
32747;BME280;19118;50.860;13.662;2023-02-04T14:20:52;98674.00;;;-0.36;100.00
32747;BME280;19118;50.860;13.662;2023-02-04T14:25:53;98678.13;;;-0.32;100.00
32747;BME280;19118;50.860;13.662;2023-02-04T14:30:53;98684.69;;;-0.41;100.00
32747;BME280;19118;50.860;13.662;2023-02-04T14:35:53;98686.69;;;-0.46;100.00
32747;BME280;19118;50.860;13.662;2023-02-04T14:40:54;98690.34;;;-0.64;100.00
32747;BME280;19118;50.860;13.662;2023-02-04T14:45:54;98696.22;;;-0.76;100.00
32747;BME280;19118;50.860;13.662;2023-02-04T14:50:54;98696.22;;;-0.76;100.00
32747;BME280;19118;50.860;13.662;2023-02-04T14:55:55;98692.19;;;-0.98;100.00
32747;BME280;19118;50.860;13.662;2023-02-04T15:00:55;98696.03;;;-1.05;100.00
32747;BME280;19118;50.860;13.662;2023-02-04T15:05:55;98696.22;;;-1.08;100.00
32747;BME280;19118;50.860;13.662;2023-02-04T15:10:56;98684.47;;;-1.15;100.00
32747;BME280;19118;50.860;13.662;2023-02-04T15:15:56;98687.41;;;-1.21;100.00
32747;BME280;19118;50.860;13.662;2023-02-04T15:20:56;98689.16;;;-1.22;100.00
32747;BME280;19118;50.860;13.662;2023-02-04T15:25:57;98680.13;;;-1.30;100.00
32747;BME280;19118;50.860;13.662;2023-02-04T15:30:57;98681.34;;;-1.37;100.00
32747;BME280;19118;50.860;13.662;2023-02-04T15:35:57;98683.53;;;-1.45;100.00
32747;BME280;19118;50.860;13.662;2023-02-04T15:40:58;98686.44;;;-1.52;100.00
32747;BME280;19118;50.860;13.662;2023-02-04T15:45:58;98692.56;;;-1.70;100.00
32747;BME280;19118;50.860;13.662;2023-02-04T15:50:59;98696.88;;;-1.86;100.00
32747;BME280;19118;50.860;13.662;2023-02-04T15:55:59;98703.31;;;-2.11;100.00
32747;BME280;19118;50.860;13.662;2023-02-04T16:01:00;98708.66;;;-2.14;100.00
32747;BME280;19118;50.860;13.662;2023-02-04T16:06:01;98702.94;;;-2.03;100.00
32747;BME280;19118;50.860;13.662;2023-02-04T16:11:02;98720.06;;;-1.83;100.00
32747;BME280;19118;50.860;13.662;2023-02-04T16:16:02;98716.88;;;-1.88;100.00
32747;BME280;19118;50.860;13.662;2023-02-04T16:21:02;98713.81;;;-1.79;100.00
32747;BME280;19118;50.860;13.662;2023-02-04T16:26:03;98713.81;;;-1.79;100.00
32747;BME280;19118;50.860;13.662;2023-02-04T16:31:03;98725.63;;;-1.73;100.00
32747;BME280;19118;50.860;13.662;2023-02-04T16:36:07;98738.75;;;-1.77;100.00
32747;BME280;19118;50.860;13.662;2023-02-04T16:41:10;98742.00;;;-1.73;100.00
32747;BME280;19118;50.860;13.662;2023-02-04T16:46:10;98743.38;;;-1.83;100.00
32747;BME280;19118;50.860;13.662;2023-02-04T16:51:11;98754.53;;;-1.81;100.00
32747;BME280;19118;50.860;13.662;2023-02-04T16:56:11;98746.28;;;-1.72;100.00
32747;BME280;19118;50.860;13.662;2023-02-04T17:01:12;98748.13;;;-1.74;100.00
32747;BME280;19118;50.860;13.662;2023-02-04T17:06:12;98750.84;;;-1.94;100.00
32747;BME280;19118;50.860;13.662;2023-02-04T17:11:15;98755.13;;;-2.11;100.00
32747;BME280;19118;50.860;13.662;2023-02-04T17:16:29;98757.41;;;-2.22;100.00
32747;BME280;19118;50.860;13.662;2023-02-04T17:21:29;98763.94;;;-2.32;100.00
32747;BME280;19118;50.860;13.662;2023-02-04T17:26:31;98767.38;;;-2.31;100.00
32747;BME280;19118;50.860;13.662;2023-02-04T17:31:36;98760.16;;;-2.25;100.00
32747;BME280;19118;50.860;13.662;2023-02-04T17:36:37;98766.19;;;-2.24;100.00
32747;BME280;19118;50.860;13.662;2023-02-04T17:41:38;98773.88;;;-2.06;100.00
32747;BME280;19118;50.860;13.662;2023-02-04T17:46:38;98774.28;;;-1.96;100.00
32747;BME280;19118;50.860;13.662;2023-02-04T17:51:38;98768.19;;;-2.12;100.00
32747;BME280;19118;50.860;13.662;2023-02-04T17:56:39;98761.31;;;-2.13;100.00
32747;BME280;19118;50.860;13.662;2023-02-04T18:01:40;98771.44;;;-2.26;100.00
32747;BME280;19118;50.860;13.662;2023-02-04T18:06:40;98778.59;;;-2.31;100.00
32747;BME280;19118;50.860;13.662;2023-02-04T18:11:41;98768.31;;;-2.15;100.00
32747;BME280;19118;50.860;13.662;2023-02-04T18:16:43;98774.19;;;-2.12;100.00
32747;BME280;19118;50.860;13.662;2023-02-04T18:21:44;98776.41;;;-2.04;100.00
32747;BME280;19118;50.860;13.662;2023-02-04T18:26:46;98774.72;;;-2.05;100.00
32747;BME280;19118;50.860;13.662;2023-02-04T18:31:51;98771.59;;;-2.12;100.00
32747;BME280;19118;50.860;13.662;2023-02-04T18:36:51;98774.41;;;-2.16;100.00
32747;BME280;19118;50.860;13.662;2023-02-04T18:41:53;98777.06;;;-2.18;100.00
32747;BME280;19118;50.860;13.662;2023-02-04T18:46:54;98771.81;;;-2.16;100.00
32747;BME280;19118;50.860;13.662;2023-02-04T18:51:55;98777.47;;;-2.08;100.00
32747;BME280;19118;50.860;13.662;2023-02-04T18:57:17;98776.31;;;-2.20;100.00
32747;BME280;19118;50.860;13.662;2023-02-04T19:02:35;98775.47;;;-2.38;100.00
32747;BME280;19118;50.860;13.662;2023-02-04T19:07:38;98774.06;;;-2.64;100.00
32747;BME280;19118;50.860;13.662;2023-02-04T19:12:38;98771.91;;;-2.73;100.00
32747;BME280;19118;50.860;13.662;2023-02-04T19:17:39;98783.63;;;-2.83;100.00
32747;BME280;19118;50.860;13.662;2023-02-04T19:22:44;98783.13;;;-2.91;100.00
32747;BME280;19118;50.860;13.662;2023-02-04T19:27:50;98796.25;;;-2.96;100.00
32747;BME280;19118;50.860;13.662;2023-02-04T19:33:00;98809.97;;;-2.75;100.00
32747;BME280;19118;50.860;13.662;2023-02-04T19:43:35;98804.91;;;-2.40;100.00
32747;BME280;19118;50.860;13.662;2023-02-04T19:48:36;98808.00;;;-2.32;100.00
32747;BME280;19118;50.860;13.662;2023-02-04T19:53:37;98806.88;;;-2.26;100.00
32747;BME280;19118;50.860;13.662;2023-02-04T19:58:41;98804.34;;;-2.28;100.00
32747;BME280;19118;50.860;13.662;2023-02-04T20:03:43;98805.41;;;-2.32;100.00
32747;BME280;19118;50.860;13.662;2023-02-04T20:08:54;98808.16;;;-2.35;100.00
32747;BME280;19118;50.860;13.662;2023-02-04T20:19:20;98815.00;;;-2.34;100.00
32747;BME280;19118;50.860;13.662;2023-02-04T20:24:20;98811.34;;;-2.30;100.00
32747;BME280;19118;50.860;13.662;2023-02-04T20:29:22;98817.44;;;-2.31;100.00
32747;BME280;19118;50.860;13.662;2023-02-04T20:34:22;98834.16;;;-2.19;100.00
32747;BME280;19118;50.860;13.662;2023-02-04T20:39:27;98836.66;;;-2.18;100.00
32747;BME280;19118;50.860;13.662;2023-02-04T20:44:38;98838.50;;;-2.20;100.00
32747;BME280;19118;50.860;13.662;2023-02-04T20:49:39;98854.13;;;-2.21;100.00
32747;BME280;19118;50.860;13.662;2023-02-04T20:54:40;98859.22;;;-2.20;100.00
32747;BME280;19118;50.860;13.662;2023-02-04T20:59:40;98857.22;;;-2.32;100.00
32747;BME280;19118;50.860;13.662;2023-02-04T21:04:41;98868.06;;;-2.43;100.00
32747;BME280;19118;50.860;13.662;2023-02-04T21:09:46;98883.69;;;-2.44;100.00
32747;BME280;19118;50.860;13.662;2023-02-04T21:14:47;98884.25;;;-2.56;100.00
32747;BME280;19118;50.860;13.662;2023-02-04T21:19:47;98892.00;;;-2.56;100.00
32747;BME280;19118;50.860;13.662;2023-02-04T21:24:50;98898.28;;;-2.62;100.00
32747;BME280;19118;50.860;13.662;2023-02-04T21:29:50;98912.63;;;-2.74;100.00
32747;BME280;19118;50.860;13.662;2023-02-04T21:34:51;98912.97;;;-2.81;100.00
32747;BME280;19118;50.860;13.662;2023-02-04T21:39:51;98914.78;;;-2.83;100.00
32747;BME280;19118;50.860;13.662;2023-02-04T21:44:51;98912.69;;;-2.94;100.00
32747;BME280;19118;50.860;13.662;2023-02-04T21:49:52;98912.34;;;-3.07;100.00
32747;BME280;19118;50.860;13.662;2023-02-04T21:54:52;98921.59;;;-3.01;100.00
32747;BME280;19118;50.860;13.662;2023-02-04T21:59:52;98922.38;;;-2.99;100.00
32747;BME280;19118;50.860;13.662;2023-02-04T22:04:53;98916.81;;;-3.10;100.00
32747;BME280;19118;50.860;13.662;2023-02-04T22:09:53;98904.91;;;-3.14;100.00
32747;BME280;19118;50.860;13.662;2023-02-04T22:14:54;98911.78;;;-3.13;100.00
32747;BME280;19118;50.860;13.662;2023-02-04T22:19:54;98914.69;;;-3.21;100.00
32747;BME280;19118;50.860;13.662;2023-02-04T22:24:54;98921.88;;;-3.28;100.00
32747;BME280;19118;50.860;13.662;2023-02-04T22:29:55;98926.06;;;-3.25;100.00
32747;BME280;19118;50.860;13.662;2023-02-04T22:34:56;98922.50;;;-3.23;100.00
32747;BME280;19118;50.860;13.662;2023-02-04T22:39:56;98926.13;;;-3.27;100.00
32747;BME280;19118;50.860;13.662;2023-02-04T22:44:57;98923.41;;;-3.24;100.00
32747;BME280;19118;50.860;13.662;2023-02-04T22:49:57;98932.09;;;-3.25;100.00
32747;BME280;19118;50.860;13.662;2023-02-04T22:54:57;98921.19;;;-3.33;100.00
32747;BME280;19118;50.860;13.662;2023-02-04T22:59:58;98932.53;;;-3.35;100.00
32747;BME280;19118;50.860;13.662;2023-02-04T23:04:58;98932.97;;;-3.46;100.00
32747;BME280;19118;50.860;13.662;2023-02-04T23:09:58;98933.97;;;-3.70;100.00
32747;BME280;19118;50.860;13.662;2023-02-04T23:14:59;98924.53;;;-3.93;100.00
32747;BME280;19118;50.860;13.662;2023-02-04T23:19:59;98932.84;;;-4.08;100.00
32747;BME280;19118;50.860;13.662;2023-02-04T23:24:59;98935.41;;;-4.30;100.00
32747;BME280;19118;50.860;13.662;2023-02-04T23:30:00;98939.72;;;-4.53;100.00
32747;BME280;19118;50.860;13.662;2023-02-04T23:35:00;98947.25;;;-4.72;100.00
32747;BME280;19118;50.860;13.662;2023-02-04T23:40:01;98946.38;;;-4.95;100.00
32747;BME280;19118;50.860;13.662;2023-02-04T23:45:01;98951.00;;;-5.30;100.00
32747;BME280;19118;50.860;13.662;2023-02-04T23:50:03;98941.31;;;-5.23;100.00
32747;BME280;19118;50.860;13.662;2023-02-04T23:55:04;98937.16;;;-5.03;100.00
